Laguna Niguel, California
Current Conditions -  °F | °C
As of 4:53 PM on Friday 28 Nov 2014 (Local Time) from KSNA Reporting Station
Clear Clear  
Wind Chill: 21°   Ceiling: Unl
Heat Index: 21°   Visibility: 10mi
Dew Point: 12°   Wind: 6mph
Humidity: 57%   Direction: 210°SSW
Pressure: 29.88"   Gusts: NA
Location:  33.56°N, 117.7°W
Report Text: KSNA 290053Z 21005KT 10SM CLR 21/12 A2988 RMK AO2 SLP118 T02060117
Loading
Personal Weather Stations






























Interactive Weather Map New forecast layout! Learn more

10-Day Weather Forecast

Advertisements
Track Severe Weather on mobile